Time;durP1;ratioP1;P1;durP2;ratioP2;P2;SDS_P1;SDS_P2;PMS_P1;PMS_P2;Temp;Humidity;BMP_temperature;BMP_pressure;BME280_temperature;BME280_humidity;BME280_pressure;Samples;Min_cycle;Max_cycle;Signal;HPM_P1;HPM_P2
2022/03/26 00:01:35;;;;;;;;;;;;;;;11.99;97.91;100345.75;4998386;28;1887387;-59
2022/03/26 00:04:01;;;;;;;;;;;;;;;11.95;99.05;100338.91;5047487;28;20317;-61
2022/03/26 00:06:26;;;;;;;;;;;;;;;11.55;100.00;100344.69;5049207;28;19928;-58
2022/03/26 00:08:52;;;;;;;;;;;;;;;11.58;100.00;100339.47;5065588;28;19920;-58
2022/03/26 00:11:17;;;;;;;;;;;;;;;11.59;100.00;100347.19;5048579;28;20255;-61
2022/03/26 00:13:43;;;;;;;;;;;;;;;11.58;100.00;100345.47;5064759;28;20350;-61
2022/03/26 00:16:08;;;;;;;;;;;;;;;11.43;100.00;100340.53;5065391;28;19924;-61
2022/03/26 00:18:33;;;;;;;;;;;;;;;10.69;100.00;100336.28;5064908;28;20294;-60
2022/03/26 00:20:59;;;;;;;;;;;;;;;10.35;100.00;100331.47;5064370;28;20003;-60
2022/03/26 00:23:24;;;;;;;;;;;;;;;10.51;100.00;100326.19;5065194;28;19955;-60
2022/03/26 00:25:49;;;;;;;;;;;;;;;10.53;100.00;100329.59;5065231;28;19963;-60
2022/03/26 00:28:15;;;;;;;;;;;;;;;10.31;100.00;100329.84;5065470;28;19925;-62
2022/03/26 00:30:40;;;;;;;;;;;;;;;10.19;100.00;100337.63;5065123;28;19912;-59
2022/03/26 00:33:05;;;;;;;;;;;;;;;10.26;100.00;100340.16;5064697;28;19966;-61
2022/03/26 00:35:31;;;;;;;;;;;;;;;9.98;100.00;100338.66;5065283;28;20003;-61
2022/03/26 00:37:56;;;;;;;;;;;;;;;10.00;100.00;100336.94;5065426;28;20391;-60
2022/03/26 00:40:21;;;;;;;;;;;;;;;9.83;100.00;100335.34;5065286;28;19920;-60
2022/03/26 00:42:47;;;;;;;;;;;;;;;10.14;100.00;100337.66;5065006;28;19920;-60
2022/03/26 00:45:12;;;;;;;;;;;;;;;10.10;100.00;100328.25;5065386;28;19913;-60
2022/03/26 00:47:38;;;;;;;;;;;;;;;10.42;100.00;100333.16;5064840;28;19916;-61
2022/03/26 00:50:03;;;;;;;;;;;;;;;10.43;100.00;100327.13;5047381;28;20007;-60
2022/03/26 00:52:29;;;;;;;;;;;;;;;10.40;100.00;100334.88;5065123;28;20274;-59
2022/03/26 00:54:54;;;;;;;;;;;;;;;10.24;100.00;100333.28;5065138;28;20400;-59
2022/03/26 00:57:19;;;;;;;;;;;;;;;10.39;100.00;100328.03;5065104;28;20007;-58
2022/03/26 00:59:45;;;;;;;;;;;;;;;10.44;100.00;100331.41;5065052;28;20014;-59
2022/03/26 01:02:11;;;;;;;;;;;;;;;10.29;100.00;100334.13;5064929;28;19924;-58
2022/03/26 01:04:38;;;;;;;;;;;;;;;10.56;100.00;100329.56;5064786;28;19924;-59
2022/03/26 01:07:03;;;;;;;;;;;;;;;11.02;100.00;100332.47;5067080;28;19913;-59
2022/03/26 01:09:28;;;;;;;;;;;;;;;11.32;100.00;100324.38;5068075;28;19925;-59
2022/03/26 01:11:54;;;;;;;;;;;;;;;10.89;100.00;100333.50;5068423;28;19928;-59
2022/03/26 01:14:19;;;;;;;;;;;;;;;11.08;100.00;100340.16;5049479;28;20535;-60
2022/03/26 01:16:44;;;;;;;;;;;;;;;10.73;100.00;100343.13;5068055;28;20417;-60
2022/03/26 01:19:10;;;;;;;;;;;;;;;10.75;100.00;100341.38;5067969;28;19920;-59
2022/03/26 01:21:35;;;;;;;;;;;;;;;10.67;100.00;100338.03;5068997;28;19920;-58
2022/03/26 01:24:01;;;;;;;;;;;;;;;10.33;100.00;100342.66;5067575;28;19938;-59
2022/03/26 01:26:26;;;;;;;;;;;;;;;10.34;100.00;100342.66;5068321;28;19924;-59
2022/03/26 01:28:51;;;;;;;;;;;;;;;10.12;100.00;100343.69;5068017;28;19942;-59
2022/03/26 01:31:19;;;;;;;;;;;;;;;9.35;100.00;100347.66;5050131;28;19916;-58
2022/03/26 01:33:45;;;;;;;;;;;;;;;9.60;100.00;100356.09;5067971;28;19917;-59
2022/03/26 01:36:11;;;;;;;;;;;;;;;9.76;100.00;100348.25;5068165;28;20007;-57
2022/03/26 01:38:36;;;;;;;;;;;;;;;10.10;100.00;100345.41;5048007;28;20011;-59
2022/03/26 01:41:01;;;;;;;;;;;;;;;10.30;100.00;100338.41;5067365;28;19920;-60
2022/03/26 01:43:27;;;;;;;;;;;;;;;10.89;100.00;100336.91;5067196;28;20031;-60
2022/03/26 01:45:52;;;;;;;;;;;;;;;10.48;100.00;100342.53;5066986;28;19920;-59
2022/03/26 01:48:17;;;;;;;;;;;;;;;10.28;100.00;100340.09;5067769;28;20066;-57
2022/03/26 01:50:43;;;;;;;;;;;;;;;9.63;100.00;100342.34;5050095;28;19920;-60
2022/03/26 01:53:08;;;;;;;;;;;;;;;9.05;100.00;100348.66;5068471;28;20440;-59
2022/03/26 01:55:33;;;;;;;;;;;;;;;8.91;100.00;100343.56;5067591;28;20004;-60
2022/03/26 01:57:59;;;;;;;;;;;;;;;8.50;100.00;100346.25;5067790;28;19928;-60
2022/03/26 02:00:24;;;;;;;;;;;;;;;8.49;100.00;100350.53;5066955;28;20286;-58
2022/03/26 02:02:50;;;;;;;;;;;;;;;8.49;100.00;100344.56;5067892;28;20662;-59
2022/03/26 02:05:16;;;;;;;;;;;;;;;8.42;100.00;100342.84;5067905;28;19916;-59
2022/03/26 02:07:42;;;;;;;;;;;;;;;8.00;100.00;100344.56;5068266;28;19940;-60
2022/03/26 02:10:08;;;;;;;;;;;;;;;8.16;100.00;100342.00;5068660;28;20038;-58
2022/03/26 02:12:33;;;;;;;;;;;;;;;8.11;100.00;100347.97;5068888;28;20421;-59
2022/03/26 02:14:59;;;;;;;;;;;;;;;8.00;100.00;100339.41;5068058;28;19920;-60
2022/03/26 02:17:24;;;;;;;;;;;;;;;8.16;100.00;100351.38;5068485;28;20329;-60
2022/03/26 02:19:50;;;;;;;;;;;;;;;8.32;100.00;100340.25;5069821;28;19963;-60
2022/03/26 02:22:15;;;;;;;;;;;;;;;8.41;100.00;100336.00;5074998;28;19923;-59
2022/03/26 02:24:41;;;;;;;;;;;;;;;8.96;100.00;100336.72;5054230;28;19932;-58
2022/03/26 02:27:06;;;;;;;;;;;;;;;9.10;100.00;100338.34;5072123;28;19920;-58
2022/03/26 02:29:32;;;;;;;;;;;;;;;8.88;100.00;100329.88;5074815;28;20408;-59
2022/03/26 02:38:11;;;;;;;;;;;;;;;8.61;100.00;100334.25;5068631;28;19969;-59
2022/03/26 02:40:37;;;;;;;;;;;;;;;8.72;100.00;100340.22;5069978;28;19917;-59
2022/03/26 02:43:02;;;;;;;;;;;;;;;8.50;100.00;100341.13;5069664;28;19965;-60
2022/03/26 02:45:29;;;;;;;;;;;;;;;8.31;100.00;100341.13;5068194;28;19916;-59
2022/03/26 02:47:55;;;;;;;;;;;;;;;8.35;100.00;100337.69;5070212;28;19923;-57
2022/03/26 02:50:20;;;;;;;;;;;;;;;7.91;100.00;100343.72;5069475;28;19960;-59
2022/03/26 02:52:48;;;;;;;;;;;;;;;7.94;100.00;100335.16;5070851;28;19954;-59
2022/03/26 02:55:13;;;;;;;;;;;;;;;8.17;100.00;100335.16;5069291;28;19962;-58
2022/03/26 02:57:38;;;;;;;;;;;;;;;7.87;100.00;100339.44;5052506;28;19952;-60
2022/03/26 03:00:04;;;;;;;;;;;;;;;7.75;100.00;100342.84;5072788;28;19919;-62
2022/03/26 03:02:30;;;;;;;;;;;;;;;7.78;100.00;100343.66;5070336;28;19924;-58
2022/03/26 03:04:55;;;;;;;;;;;;;;;7.60;100.00;100340.25;5071198;28;19974;-58
2022/03/26 03:07:21;;;;;;;;;;;;;;;7.57;100.00;100332.53;5068123;28;19916;-59
2022/03/26 03:09:46;;;;;;;;;;;;;;;7.31;100.00;100340.19;5071286;28;19931;-56
2022/03/26 03:12:11;;;;;;;;;;;;;;;7.62;100.00;100332.53;5089220;28;19912;-56
2022/03/26 03:14:37;;;;;;;;;;;;;;;7.41;100.00;100334.25;5084613;28;19932;-57
2022/03/26 03:17:03;;;;;;;;;;;;;;;6.88;100.00;100337.47;5069919;28;19973;-62
2022/03/26 03:19:28;;;;;;;;;;;;;;;7.08;100.00;100338.41;5066616;28;19920;-61
2022/03/26 03:21:53;;;;;;;;;;;;;;;7.19;100.00;100337.59;5066032;28;20263;-61
2022/03/26 03:24:19;;;;;;;;;;;;;;;7.14;100.00;100337.56;5065787;28;19930;-64
2022/03/26 03:26:44;;;;;;;;;;;;;;;7.40;100.00;100336.78;5066042;28;19916;-65
2022/03/26 03:29:09;;;;;;;;;;;;;;;7.29;100.00;100344.44;5065191;28;20435;-65
2022/03/26 03:31:37;;;;;;;;;;;;;;;7.21;100.00;100346.16;5066187;28;19920;-65
2022/03/26 03:34:02;;;;;;;;;;;;;;;6.92;100.00;100339.19;5065421;28;20010;-65
2022/03/26 03:36:27;;;;;;;;;;;;;;;7.08;100.00;100343.53;5065775;28;20011;-65
2022/03/26 03:38:52;;;;;;;;;;;;;;;7.12;100.00;100347.81;5065458;28;19920;-64
2022/03/26 03:41:18;;;;;;;;;;;;;;;6.84;100.00;100341.72;5066290;28;19920;-65
2022/03/26 03:43:43;;;;;;;;;;;;;;;6.96;100.00;100340.06;5047574;28;20633;-65
2022/03/26 03:46:08;;;;;;;;;;;;;;;7.23;100.00;100339.28;5065523;28;20266;-65
2022/03/26 03:48:34;;;;;;;;;;;;;;;7.08;100.00;100346.06;5066106;28;19921;-64
2022/03/26 03:50:59;;;;;;;;;;;;;;;7.08;100.00;100335.84;5065514;28;19921;-64
2022/03/26 03:53:24;;;;;;;;;;;;;;;7.29;100.00;100339.31;5047533;28;19927;-65
2022/03/26 03:55:50;;;;;;;;;;;;;;;7.22;100.00;100341.00;5065301;28;20011;-65
2022/03/26 03:58:15;;;;;;;;;;;;;;;7.42;100.00;100330.81;5065836;28;19920;-65
2022/03/26 04:00:40;;;;;;;;;;;;;;;6.88;100.00;100332.34;5065866;28;20428;-64
2022/03/26 04:03:06;;;;;;;;;;;;;;;7.07;100.00;100334.13;5065493;28;19925;-64
2022/03/26 04:05:31;;;;;;;;;;;;;;;6.88;100.00;100327.22;5065356;28;19917;-65
2022/03/26 04:07:56;;;;;;;;;;;;;;;6.98;100.00;100330.66;5064741;28;20033;-65
2022/03/26 04:10:21;;;;;;;;;;;;;;;6.85;100.00;100332.34;5065742;28;19916;-65
2022/03/26 04:12:47;;;;;;;;;;;;;;;6.72;100.00;100330.56;5065936;28;19999;-64
2022/03/26 04:15:13;;;;;;;;;;;;;;;6.80;100.00;100334.03;5065342;28;19920;-65
2022/03/26 04:17:39;;;;;;;;;;;;;;;6.64;100.00;100333.94;5065649;28;20046;-65
2022/03/26 04:20:13;;;;;;;;;;;;;;;6.48;100.00;100342.38;5065059;28;19923;-65
2022/03/26 04:22:39;;;;;;;;;;;;;;;6.54;100.00;100342.41;5048519;28;20470;-65
2022/03/26 04:25:05;;;;;;;;;;;;;;;6.70;100.00;100346.78;5065158;28;19917;-64
2022/03/26 04:27:30;;;;;;;;;;;;;;;6.53;100.00;100345.81;5065483;28;19943;-64
2022/03/26 04:29:55;;;;;;;;;;;;;;;6.54;100.00;100347.50;5065726;28;20381;-65
2022/03/26 04:32:21;;;;;;;;;;;;;;;6.37;100.00;100349.97;5065590;28;20283;-64
2022/03/26 04:34:46;;;;;;;;;;;;;;;6.62;100.00;100345.88;5064971;28;19931;-64
2022/03/26 04:37:11;;;;;;;;;;;;;;;6.61;100.00;100354.38;5065881;28;20430;-64
2022/03/26 04:39:37;;;;;;;;;;;;;;;6.53;100.00;100360.31;5065346;28;19930;-65
2022/03/26 04:42:02;;;;;;;;;;;;;;;6.70;100.00;100354.47;5067557;28;19916;-65
2022/03/26 04:44:27;;;;;;;;;;;;;;;6.46;100.00;100359.44;5068610;28;19943;-64
2022/03/26 04:46:53;;;;;;;;;;;;;;;6.39;100.00;100362.78;5068790;28;20297;-64
2022/03/26 04:49:19;;;;;;;;;;;;;;;6.58;100.00;100351.81;5068930;28;19925;-65
2022/03/26 04:51:45;;;;;;;;;;;;;;;6.68;100.00;100358.72;5050625;28;19966;-65
2022/03/26 04:54:10;;;;;;;;;;;;;;;6.63;100.00;100355.25;5068500;28;20232;-65
2022/03/26 04:56:35;;;;;;;;;;;;;;;6.73;100.00;100362.97;5069392;28;19920;-65
2022/03/26 04:59:01;;;;;;;;;;;;;;;6.48;100.00;100367.97;5068762;28;20024;-65
2022/03/26 05:01:26;;;;;;;;;;;;;;;7.03;100.00;100360.59;5068561;28;19924;-64
2022/03/26 05:03:51;;;;;;;;;;;;;;;6.99;100.00;100365.69;5068368;28;19966;-65
2022/03/26 05:06:17;;;;;;;;;;;;;;;7.03;100.00;100363.16;5067763;28;20412;-65
2022/03/26 05:08:42;;;;;;;;;;;;;;;6.91;100.00;100368.19;5068910;28;19968;-65
2022/03/26 05:11:07;;;;;;;;;;;;;;;6.60;100.00;100367.19;5068608;28;19920;-65
2022/03/26 05:13:33;;;;;;;;;;;;;;;6.40;100.00;100374.72;5068898;28;19950;-64
2022/03/26 05:15:58;;;;;;;;;;;;;;;6.22;100.00;100378.84;5068120;28;19962;-64
2022/03/26 05:18:24;;;;;;;;;;;;;;;6.27;100.00;100379.75;5068140;28;19936;-64
2022/03/26 05:20:49;;;;;;;;;;;;;;;6.26;100.00;100380.59;5067733;28;19920;-65
2022/03/26 05:23:15;;;;;;;;;;;;;;;6.10;100.00;100376.19;5068606;28;20011;-64
2022/03/26 05:25:40;;;;;;;;;;;;;;;6.17;100.00;100377.97;5067786;28;19939;-64
2022/03/26 05:28:05;;;;;;;;;;;;;;;6.28;100.00;100376.34;5049944;28;20503;-64
2022/03/26 05:30:31;;;;;;;;;;;;;;;6.41;100.00;100377.31;5068113;28;19950;-64
2022/03/26 05:32:56;;;;;;;;;;;;;;;6.66;100.00;100378.31;5068124;28;19941;-64
2022/03/26 05:35:21;;;;;;;;;;;;;;;6.90;100.00;100381.84;5067441;28;19966;-65
2022/03/26 05:37:47;;;;;;;;;;;;;;;6.97;100.00;100387.88;5068241;28;20382;-65
2022/03/26 05:40:13;;;;;;;;;;;;;;;7.31;100.00;100384.59;5068413;28;20332;-65
2022/03/26 05:42:39;;;;;;;;;;;;;;;7.37;100.00;100390.56;5068251;28;19938;-64
2022/03/26 05:45:04;;;;;;;;;;;;;;;6.91;100.00;100388.69;5066797;28;19943;-64
2022/03/26 05:47:30;;;;;;;;;;;;;;;6.76;100.00;100388.63;5068141;28;19917;-64
2022/03/26 05:49:55;;;;;;;;;;;;;;;7.33;100.00;100402.53;5067429;28;19920;-64
2022/03/26 05:52:21;;;;;;;;;;;;;;;6.78;100.00;100407.41;5066219;28;20356;-64
2022/03/26 05:54:46;;;;;;;;;;;;;;;6.47;100.00;100405.47;5067203;28;19920;-65
2022/03/26 05:57:11;;;;;;;;;;;;;;;6.61;100.00;100409.84;5068144;28;19923;-64
2022/03/26 05:59:36;;;;;;;;;;;;;;;6.79;100.00;100414.22;5067854;28;20520;-65
2022/03/26 06:02:02;;;;;;;;;;;;;;;6.47;100.00;100427.66;5068038;28;19920;-64
2022/03/26 06:04:28;;;;;;;;;;;;;;;6.55;100.00;100426.03;5067070;28;20050;-64
2022/03/26 06:06:54;;;;;;;;;;;;;;;6.70;100.00;100426.13;5067107;28;19920;-64
2022/03/26 06:09:19;;;;;;;;;;;;;;;6.92;100.00;100433.94;5067281;28;20046;-65
2022/03/26 06:11:44;;;;;;;;;;;;;;;6.88;100.00;100434.75;5067257;28;20271;-65
2022/03/26 06:14:10;;;;;;;;;;;;;;;6.93;100.00;100440.75;5067284;28;19932;-64
2022/03/26 06:16:35;;;;;;;;;;;;;;;6.98;100.00;100444.22;5066897;28;20401;-65
2022/03/26 06:19:01;;;;;;;;;;;;;;;7.17;100.00;100444.34;5067713;28;20577;-65
2022/03/26 06:21:28;;;;;;;;;;;;;;;7.29;100.00;100442.66;5066948;28;19927;-65
2022/03/26 06:23:55;;;;;;;;;;;;;;;7.47;100.00;100441.88;5049575;28;19974;-65
2022/03/26 06:26:21;;;;;;;;;;;;;;;7.79;100.00;100443.69;5067535;28;19923;-64
2022/03/26 06:28:46;;;;;;;;;;;;;;;7.75;100.00;100447.09;5068246;28;20003;-65
2022/03/26 06:31:12;;;;;;;;;;;;;;;8.60;100.00;100435.25;5067333;28;20007;-65
2022/03/26 06:33:37;;;;;;;;;;;;;;;8.67;100.00;100441.25;5066818;28;21452;-64
2022/03/26 06:36:03;;;;;;;;;;;;;;;8.32;100.00;100440.34;5066737;28;19920;-64
2022/03/26 06:38:31;;;;;;;;;;;;;;;9.24;100.00;100430.81;5067416;28;19920;-65
2022/03/26 06:40:57;;;;;;;;;;;;;;;9.87;100.00;100422.81;5068341;28;19913;-66
2022/03/26 06:43:22;;;;;;;;;;;;;;;9.82;100.00;100428.81;5067628;28;19934;-65
2022/03/26 06:45:47;;;;;;;;;;;;;;;9.51;100.00;100433.28;5067789;28;19927;-65
2022/03/26 06:48:12;;;;;;;;;;;;;;;8.41;100.00;100429.25;5049337;28;20370;-65
2022/03/26 06:50:38;;;;;;;;;;;;;;;8.99;100.00;100428.34;5068033;28;19966;-65
2022/03/26 06:53:03;;;;;;;;;;;;;;;9.33;100.00;100423.09;5068031;28;19913;-65
2022/03/26 06:55:28;;;;;;;;;;;;;;;8.75;100.00;100426.66;5067494;28;19982;-65
2022/03/26 06:57:54;;;;;;;;;;;;;;;8.81;100.00;100433.53;5059107;28;19924;-65
2022/03/26 07:00:19;;;;;;;;;;;;;;;9.50;100.00;100426.44;5067298;28;20019;-65
2022/03/26 07:02:44;;;;;;;;;;;;;;;9.14;100.00;100433.41;5067176;28;20007;-65
2022/03/26 07:05:10;;;;;;;;;;;;;;;8.96;100.00;100430.91;5065528;28;19950;-65
2022/03/26 07:07:35;;;;;;;;;;;;;;;9.59;100.00;100431.53;5065162;28;19920;-65
2022/03/26 07:10:01;;;;;;;;;;;;;;;9.19;100.00;100424.00;5066567;28;19917;-65
2022/03/26 07:12:29;;;;;;;;;;;;;;;9.50;100.00;100423.84;5065500;28;20007;-65
2022/03/26 07:14:55;;;;;;;;;;;;;;;9.92;100.00;100429.66;5066037;28;19916;-65
2022/03/26 07:17:20;;;;;;;;;;;;;;;9.69;100.00;100424.59;5065395;28;19927;-65
2022/03/26 07:19:45;;;;;;;;;;;;;;;9.34;100.00;100427.38;5066687;28;19927;-65
2022/03/26 07:22:11;;;;;;;;;;;;;;;9.87;100.00;100421.06;5066411;28;19916;-65
2022/03/26 07:24:36;;;;;;;;;;;;;;;10.16;100.00;100420.03;5048134;28;19951;-65
2022/03/26 07:27:01;;;;;;;;;;;;;;;10.61;100.00;100415.41;5065348;28;20030;-65
2022/03/26 07:29:27;;;;;;;;;;;;;;;11.17;100.00;100413.06;5066449;28;19924;-65
2022/03/26 07:31:52;;;;;;;;;;;;;;;11.50;100.00;100416.97;5066511;28;19947;-65
2022/03/26 07:34:18;;;;;;;;;;;;;;;11.39;100.00;100422.25;5065934;28;20409;-65
2022/03/26 07:36:43;;;;;;;;;;;;;;;11.94;100.00;100415.53;5066243;28;19944;-65
2022/03/26 07:39:09;;;;;;;;;;;;;;;11.91;100.00;100424.19;5067196;28;19928;-65
2022/03/26 07:41:34;;;;;;;;;;;;;;;12.06;100.00;100425.66;5060260;28;19930;-65
2022/03/26 07:44:00;;;;;;;;;;;;;;;12.05;100.00;100434.28;5063260;28;20158;-65
2022/03/26 07:46:25;;;;;;;;;;;;;;;12.02;100.00;100434.34;5066936;28;19916;-65
2022/03/26 07:48:50;;;;;;;;;;;;;;;12.41;100.00;100436.34;5065832;28;19920;-65
2022/03/26 07:51:16;;;;;;;;;;;;;;;12.67;100.00;100428.13;5065877;28;19935;-65
2022/03/26 07:53:41;;;;;;;;;;;;;;;12.92;100.00;100428.53;5065870;28;20011;-65
2022/03/26 07:56:06;;;;;;;;;;;;;;;13.03;100.00;100430.94;5065508;28;20378;-65
2022/03/26 07:58:32;;;;;;;;;;;;;;;13.30;100.00;100427.81;5065953;28;19973;-64
2022/03/26 08:00:57;;;;;;;;;;;;;;;13.03;100.00;100426.59;5066644;28;19920;-65
2022/03/26 08:03:24;;;;;;;;;;;;;;;12.88;100.00;100432.91;5066216;28;20370;-65
2022/03/26 08:05:50;;;;;;;;;;;;;;;13.68;100.00;100433.06;5066012;28;19928;-65
2022/03/26 08:08:15;;;;;;;;;;;;;;;14.20;100.00;100435.31;5066259;28;20322;-65
2022/03/26 08:10:40;;;;;;;;;;;;;;;14.26;100.00;100436.06;5067163;28;19916;-65
2022/03/26 08:13:05;;;;;;;;;;;;;;;14.32;100.00;100433.31;5066403;28;19956;-65
2022/03/26 08:15:31;;;;;;;;;;;;;;;14.97;100.00;100443.78;5066532;28;19938;-65
2022/03/26 08:17:58;;;;;;;;;;;;;;;15.09;98.97;100444.34;5070213;28;19916;-67
2022/03/26 08:20:24;;;;;;;;;;;;;;;14.46;98.41;100444.22;5069816;28;20298;-65
2022/03/26 08:22:49;;;;;;;;;;;;;;;14.92;97.71;100444.81;5067866;28;19924;-65
2022/03/26 08:26:19;;;;;;;;;;;;;;;16.21;94.49;100447.06;5070262;28;20074;-65
2022/03/26 08:28:04;;;;;;;;;;;;;;;15.06;97.34;100459.09;5069818;28;19927;-65
2022/03/26 08:30:29;;;;;;;;;;;;;;;13.33;100.00;100469.16;5068468;28;19931;-65
2022/03/26 08:32:55;;;;;;;;;;;;;;;13.76;100.00;100476.03;5069269;28;20370;-65
2022/03/26 08:35:21;;;;;;;;;;;;;;;13.21;100.00;100477.13;5051941;28;19912;-65
2022/03/26 08:37:46;;;;;;;;;;;;;;;12.98;100.00;100486.16;5069092;28;19939;-65
2022/03/26 08:40:11;;;;;;;;;;;;;;;12.84;100.00;100493.31;5069138;28;19920;-65
2022/03/26 08:42:37;;;;;;;;;;;;;;;13.33;100.00;100481.25;5068789;28;19920;-65
2022/03/26 08:45:02;;;;;;;;;;;;;;;13.75;100.00;100483.81;5069480;28;20031;-65
2022/03/26 08:47:28;;;;;;;;;;;;;;;14.53;100.00;100484.66;5069582;28;19924;-65
2022/03/26 08:49:53;;;;;;;;;;;;;;;14.26;100.00;100486.16;5072679;28;19923;-64
2022/03/26 08:52:21;;;;;;;;;;;;;;;13.76;100.00;100491.56;5069191;28;19917;-64
2022/03/26 08:54:48;;;;;;;;;;;;;;;14.04;100.00;100485.78;5068110;28;19926;-64
2022/03/26 08:57:14;;;;;;;;;;;;;;;13.62;100.00;100493.59;5069885;28;19962;-64
2022/03/26 08:59:39;;;;;;;;;;;;;;;14.33;100.00;100487.72;5069503;28;19928;-63
2022/03/26 09:02:05;;;;;;;;;;;;;;;14.93;100.00;100488.84;5069691;28;19928;-64
2022/03/26 09:04:30;;;;;;;;;;;;;;;14.22;100.00;100487.94;5070354;28;19916;-63
2022/03/26 09:06:56;;;;;;;;;;;;;;;13.75;100.00;100495.06;5070012;28;20347;-64
2022/03/26 09:09:21;;;;;;;;;;;;;;;14.67;100.00;100491.28;5069343;28;19967;-64
2022/03/26 09:11:48;;;;;;;;;;;;;;;15.76;97.48;100481.41;5068640;28;20370;-64
2022/03/26 09:14:13;;;;;;;;;;;;;;;15.93;93.81;100482.63;5069472;28;19963;-64
2022/03/26 09:16:38;;;;;;;;;;;;;;;15.95;94.49;100488.63;5068629;28;19978;-63
2022/03/26 09:19:03;;;;;;;;;;;;;;;14.99;97.88;100496.47;5069633;28;20027;-64
2022/03/26 09:21:29;;;;;;;;;;;;;;;15.47;100.00;100490.00;5069378;28;19916;-64
2022/03/26 09:23:54;;;;;;;;;;;;;;;16.84;90.42;100488.41;5069296;28;19970;-64
2022/03/26 09:26:19;;;;;;;;;;;;;;;16.21;89.02;100493.00;5068972;28;19964;-64
2022/03/26 09:28:45;;;;;;;;;;;;;;;15.25;95.30;100494.91;5067651;28;20440;-64
2022/03/26 09:31:11;;;;;;;;;;;;;;;14.70;100.00;100497.22;5068884;28;19916;-64
2022/03/26 09:33:36;;;;;;;;;;;;;;;16.39;100.00;100499.38;5068867;28;19927;-64
2022/03/26 09:36:02;;;;;;;;;;;;;;;16.80;95.35;100497.22;5068725;28;19916;-64
2022/03/26 09:38:27;;;;;;;;;;;;;;;16.54;95.85;100490.25;5065764;28;19925;-64
2022/03/26 09:40:53;;;;;;;;;;;;;;;17.64;90.34;100485.56;5067772;28;19912;-64
2022/03/26 09:43:18;;;;;;;;;;;;;;;18.45;82.07;100478.94;5067986;28;19923;-64
2022/03/26 09:45:43;;;;;;;;;;;;;;;17.43;88.13;100485.44;5068009;28;19920;-64
2022/03/26 09:48:09;;;;;;;;;;;;;;;17.68;84.80;100476.72;5067994;28;19924;-64
2022/03/26 09:50:34;;;;;;;;;;;;;;;17.94;81.27;100473.97;5067977;28;19971;-64
2022/03/26 09:52:59;;;;;;;;;;;;;;;17.98;84.19;100472.97;5068023;28;20016;-64
2022/03/26 09:55:25;;;;;;;;;;;;;;;16.77;90.62;100476.47;5067366;28;19923;-64
2022/03/26 09:57:50;;;;;;;;;;;;;;;16.61;92.93;100474.38;5068766;28;20007;-65
2022/03/26 10:00:16;;;;;;;;;;;;;;;18.04;83.82;100464.06;5072641;28;19998;-64
2022/03/26 10:02:41;;;;;;;;;;;;;;;16.48;92.61;100484.31;5074247;28;19916;-65
2022/03/26 10:05:08;;;;;;;;;;;;;;;17.09;93.46;100481.44;5069180;28;19927;-65
2022/03/26 10:07:33;;;;;;;;;;;;;;;17.86;86.50;100465.63;5068146;28;19916;-64
2022/03/26 10:09:58;;;;;;;;;;;;;;;17.77;92.41;100471.16;5066900;28;19928;-64
2022/03/26 10:12:27;;;;;;;;;;;;;;;17.58;88.23;100473.59;5049982;28;20369;-64
2022/03/26 10:14:52;;;;;;;;;;;;;;;18.07;89.50;100474.38;5069171;28;19920;-64
2022/03/26 10:17:19;;;;;;;;;;;;;;;18.65;88.81;100471.13;5069895;28;19970;-64
2022/03/26 10:19:44;;;;;;;;;;;;;;;19.41;77.14;100467.00;5072982;28;19956;-60
2022/03/26 10:22:26;;;;;;;;;;;;;;;19.42;80.04;100467.84;5070211;28;19960;-64
2022/03/26 10:24:52;;;;;;;;;;;;;;;18.58;81.20;100467.09;5068845;28;19935;-63
2022/03/26 10:27:18;;;;;;;;;;;;;;;19.61;82.00;100458.25;5070385;28;19917;-64
2022/03/26 10:29:53;;;;;;;;;;;;;;;19.74;71.25;100458.56;5069242;28;19921;-64
2022/03/26 10:35:07;;;;;;;;;;;;;;;19.90;78.64;100447.38;5071359;28;19974;-63
2022/03/26 10:37:43;;;;;;;;;;;;;;;21.03;75.89;100447.00;5072185;28;20020;-63
2022/03/26 10:40:21;;;;;;;;;;;;;;;20.19;73.60;100451.22;5069761;28;19921;-62
2022/03/26 10:42:53;;;;;;;;;;;;;;;19.06;77.67;100446.81;5070921;28;20274;-62
2022/03/26 10:45:19;;;;;;;;;;;;;;;18.77;75.77;100449.78;5068882;28;19920;-61
2022/03/26 10:47:45;;;;;;;;;;;;;;;19.40;78.25;100438.31;5077279;28;20282;-61
2022/03/26 10:50:13;;;;;;;;;;;;;;;20.60;75.68;100432.66;5063313;28;19938;-60
2022/03/26 10:52:38;;;;;;;;;;;;;;;20.17;70.26;100439.97;5072422;28;19956;-61
2022/03/26 10:55:10;;;;;;;;;;;;;;;19.88;80.15;100442.22;5072538;28;19920;-61
2022/03/26 10:57:35;;;;;;;;;;;;;;;19.95;77.89;100442.78;5072193;28;19931;-61
2022/03/26 11:00:01;;;;;;;;;;;;;;;19.94;73.39;100444.53;5056666;28;20325;-61
2022/03/26 11:02:26;;;;;;;;;;;;;;;20.00;74.59;100444.25;5056941;28;20359;-60
2022/03/26 11:04:52;;;;;;;;;;;;;;;19.62;80.33;100444.25;5064978;28;19920;-61
2022/03/26 11:07:17;;;;;;;;;;;;;;;20.38;77.45;100433.66;5051049;28;19979;-61
2022/03/26 11:09:42;;;;;;;;;;;;;;;19.87;76.60;100434.47;5051967;28;19917;-60
2022/03/26 11:12:08;;;;;;;;;;;;;;;20.23;72.11;100434.41;5056918;28;20000;-61
2022/03/26 11:14:41;;;;;;;;;;;;;;;20.62;72.53;100429.03;5064084;28;20386;-59
2022/03/26 11:17:25;;;;;;;;;;;;;;;21.52;68.27;100420.78;5058696;28;19912;-60
2022/03/26 11:20:09;;;;;;;;;;;;;;;21.29;69.46;100415.94;5058915;28;20386;-61
2022/03/26 11:22:46;;;;;;;;;;;;;;;20.52;72.67;100429.53;5031943;28;19920;-61
2022/03/26 11:25:15;;;;;;;;;;;;;;;17.70;85.58;100434.06;5051957;28;19913;-61
2022/03/26 11:27:50;;;;;;;;;;;;;;;17.75;91.59;100426.91;5062431;28;20027;-61
2022/03/26 11:30:16;;;;;;;;;;;;;;;20.38;84.02;100422.38;5051521;28;19916;-60
2022/03/26 11:32:46;;;;;;;;;;;;;;;19.88;76.07;100423.91;5051701;28;19920;-60
2022/03/26 11:35:15;;;;;;;;;;;;;;;19.23;78.54;100426.88;5056982;28;19967;-60
2022/03/26 11:38:02;;;;;;;;;;;;;;;18.22;90.19;100436.38;5059015;28;20363;-60
2022/03/26 11:40:42;;;;;;;;;;;;;;;18.56;90.31;100420.19;5051951;28;19916;-60
2022/03/26 11:43:08;;;;;;;;;;;;;;;19.93;85.57;100410.63;5052581;28;19979;-60
2022/03/26 11:51:39;;;;;;;;;;;;;;;20.93;69.93;100403.00;5037964;28;20285;-60
2022/03/26 11:54:12;;;;;;;;;;;;;;;19.65;72.84;100415.34;5065660;28;19923;-60
2022/03/26 11:56:38;;;;;;;;;;;;;;;19.81;69.79;100406.81;5051509;28;19913;-60
2022/03/26 11:59:03;;;;;;;;;;;;;;;22.16;76.77;100401.53;5061686;28;19913;-60
2022/03/26 12:01:38;;;;;;;;;;;;;;;20.59;68.52;100402.97;5062061;28;19924;-60
2022/03/26 12:04:07;;;;;;;;;;;;;;;20.91;72.26;100397.00;5071115;28;19947;-60
2022/03/26 12:06:40;;;;;;;;;;;;;;;20.32;73.07;100402.59;5074804;28;19946;-60
2022/03/26 12:09:05;;;;;;;;;;;;;;;19.55;76.54;100400.19;5054497;28;19925;-61
2022/03/26 12:11:34;;;;;;;;;;;;;;;18.26;81.07;100398.84;5074563;28;20054;-61
2022/03/26 12:14:01;;;;;;;;;;;;;;;21.28;73.49;100391.50;5074276;28;19916;-60
2022/03/26 12:16:46;;;;;;;;;;;;;;;21.07;68.56;100390.91;5074190;28;19924;-60
2022/03/26 12:19:11;;;;;;;;;;;;;;;21.22;67.08;100386.59;5077396;28;20512;-61
2022/03/26 12:21:48;;;;;;;;;;;;;;;22.09;64.10;100380.88;5076475;28;20089;-60
2022/03/26 12:24:16;;;;;;;;;;;;;;;22.14;60.35;100391.13;5075463;28;19913;-60
2022/03/26 12:26:49;;;;;;;;;;;;;;;20.94;74.25;100394.22;5070211;28;19916;-61
2022/03/26 12:29:14;;;;;;;;;;;;;;;19.91;79.05;100391.53;5071707;28;20063;-61
2022/03/26 12:31:39;;;;;;;;;;;;;;;19.52;76.53;100388.09;5076541;28;20022;-60
2022/03/26 12:34:05;;;;;;;;;;;;;;;20.88;69.04;100375.28;5070819;28;19913;-61
2022/03/26 12:36:30;;;;;;;;;;;;;;;20.13;73.46;100381.72;5072880;28;19913;-59
2022/03/26 12:38:56;;;;;;;;;;;;;;;20.53;72.75;100378.88;5072832;28;19919;-61
2022/03/26 12:41:21;;;;;;;;;;;;;;;21.04;66.21;100364.84;5074977;28;19916;-63
2022/03/26 12:43:53;;;;;;;;;;;;;;;21.28;71.19;100370.53;5074941;28;19991;-61